createdAt,value
2023-04-16T00:02:16.718Z,100957.22
2023-04-16T00:04:43.955Z,100986.94
2023-04-16T00:07:11.146Z,101002.03
2023-04-16T00:09:38.316Z,100957.03
2023-04-16T00:12:06.386Z,101008.72
2023-04-16T00:14:33.636Z,101005.94
2023-04-16T00:17:01.138Z,100981.91
2023-04-16T00:19:28.255Z,100994.28
2023-04-16T00:21:55.664Z,100971.00
2023-04-16T00:24:23.033Z,101003.03
2023-04-16T00:26:50.030Z,101001.16
2023-04-16T00:29:17.045Z,100997.34
2023-04-16T00:31:44.167Z,100977.84
2023-04-16T00:34:11.347Z,100997.84
2023-04-16T00:36:38.793Z,100993.44
2023-04-16T00:39:05.899Z,100994.75
2023-04-16T00:41:33.004Z,101008.09
2023-04-16T00:44:00.177Z,100993.53
2023-04-16T00:46:27.935Z,101004.13
2023-04-16T00:48:56.461Z,100998.50
2023-04-16T00:51:23.990Z,100999.28
2023-04-16T00:53:51.248Z,100997.75
2023-04-16T00:56:18.628Z,100991.34
2023-04-16T00:58:45.775Z,100982.53
2023-04-16T01:01:14.700Z,101003.69
2023-04-16T01:03:47.431Z,100998.41
2023-04-16T01:06:16.026Z,100982.13
2023-04-16T01:08:43.403Z,100998.78
2023-04-16T01:11:11.374Z,100984.22
2023-04-16T01:13:41.552Z,100999.09
2023-04-16T01:16:10.045Z,100995.53
2023-04-16T01:18:37.809Z,100989.16
2023-04-16T01:21:05.583Z,101002.25
2023-04-16T01:23:33.550Z,100989.97
2023-04-16T01:26:01.143Z,100977.22
2023-04-16T01:28:28.231Z,101000.16
2023-04-16T01:30:55.579Z,100964.06
2023-04-16T01:33:36.057Z,100944.59
2023-04-16T01:36:03.343Z,101002.84
2023-04-16T01:38:30.533Z,100963.25
2023-04-16T01:40:59.590Z,100993.06
2023-04-16T01:43:26.880Z,100966.22
2023-04-16T01:46:19.622Z,100974.84
2023-04-16T01:48:47.611Z,100964.97
2023-04-16T01:51:14.815Z,100955.13
2023-04-16T01:53:41.919Z,100996.13
2023-04-16T01:56:09.109Z,101006.44
2023-04-16T01:58:36.266Z,100982.13
2023-04-16T02:01:04.626Z,101007.97
2023-04-16T02:03:32.721Z,101004.22
2023-04-16T02:06:01.330Z,100990.25
2023-04-16T02:08:29.340Z,100997.59
2023-04-16T02:10:57.722Z,101012.66
2023-04-16T02:13:26.329Z,101001.38
2023-04-16T02:15:53.857Z,101006.94
2023-04-16T02:18:50.485Z,100985.09
2023-04-16T02:21:20.431Z,100980.06
2023-04-16T02:23:51.815Z,100981.75
2023-04-16T02:26:23.635Z,100975.69
2023-04-16T02:28:51.246Z,100999.59
2023-04-16T02:31:22.554Z,101008.63
2023-04-16T02:33:49.848Z,101010.16
2023-04-16T02:36:17.069Z,100952.53
2023-04-16T02:38:44.241Z,100991.72
2023-04-16T02:41:11.554Z,100975.97
2023-04-16T02:43:38.606Z,100991.00
2023-04-16T02:46:06.168Z,101002.63
2023-04-16T02:48:33.406Z,100995.13
2023-04-16T02:51:00.911Z,100980.81
2023-04-16T02:53:28.088Z,100982.44
2023-04-16T02:55:56.052Z,101020.03
2023-04-16T02:58:25.129Z,101021.00
2023-04-16T03:00:53.877Z,101020.19
2023-04-16T03:03:21.545Z,101012.88
2023-04-16T03:05:48.800Z,100959.50
2023-04-16T03:08:17.196Z,101023.78
2023-04-16T03:10:44.676Z,100975.97
2023-04-16T03:13:12.223Z,101020.38
2023-04-16T03:15:39.293Z,101008.94
2023-04-16T03:18:06.608Z,100988.06
2023-04-16T03:20:34.004Z,101018.75
2023-04-16T03:23:01.450Z,100989.22
2023-04-16T03:25:28.506Z,101029.31
2023-04-16T03:27:56.836Z,101014.38
2023-04-16T03:30:24.435Z,101023.31
2023-04-16T03:32:52.198Z,101000.56
2023-04-16T03:35:19.672Z,101029.66
2023-04-16T03:37:46.792Z,100983.69
2023-04-16T03:40:14.192Z,101020.34
2023-04-16T03:42:41.802Z,101013.19
2023-04-16T03:45:09.649Z,101014.44
2023-04-16T03:47:38.274Z,101015.41
2023-04-16T03:50:05.805Z,101013.16
2023-04-16T03:52:32.953Z,100976.91
2023-04-16T03:54:59.997Z,100987.72
2023-04-16T03:57:33.315Z,101032.47
2023-04-16T04:00:06.986Z,101022.84
2023-04-16T04:02:57.267Z,101023.34
2023-04-16T04:05:24.780Z,101025.00
2023-04-16T04:07:52.669Z,101019.94
2023-04-16T04:10:19.891Z,100994.97
2023-04-16T04:12:47.332Z,101013.59
2023-04-16T04:15:14.536Z,101007.16
2023-04-16T04:17:43.063Z,101009.56
2023-04-16T04:20:11.036Z,100960.13
2023-04-16T04:22:38.220Z,100990.81
2023-04-16T04:25:05.749Z,101006.53
2023-04-16T04:27:33.478Z,100977.91
2023-04-16T04:30:00.598Z,101022.91
2023-04-16T04:32:28.185Z,101010.38
2023-04-16T04:34:55.273Z,100987.59
2023-04-16T04:37:22.593Z,101000.16
2023-04-16T04:39:49.618Z,100986.09
2023-04-16T04:42:18.829Z,100993.72
2023-04-16T04:44:46.262Z,100992.06
2023-04-16T04:47:14.966Z,101010.41
2023-04-16T04:49:42.154Z,100995.94
2023-04-16T04:52:09.474Z,100999.03
2023-04-16T04:54:37.026Z,101009.13
2023-04-16T04:57:05.512Z,101008.72
2023-04-16T04:59:33.008Z,100982.59
2023-04-16T05:02:00.793Z,101006.03
2023-04-16T05:04:27.822Z,100970.78
2023-04-16T05:06:55.299Z,101008.50
2023-04-16T05:09:22.586Z,100944.72
2023-04-16T05:11:49.774Z,101002.22
2023-04-16T05:14:17.182Z,100980.78
2023-04-16T05:16:44.491Z,101007.47
2023-04-16T05:19:12.023Z,100996.38
2023-04-16T05:21:39.372Z,101000.91
2023-04-16T05:24:06.845Z,101000.41
2023-04-16T05:26:33.939Z,101003.00
2023-04-16T05:29:01.216Z,100984.53
2023-04-16T05:31:28.580Z,101000.09
2023-04-16T05:33:55.752Z,100984.25
2023-04-16T05:36:23.090Z,100963.03
2023-04-16T05:38:50.284Z,100977.97
2023-04-16T05:41:17.476Z,100955.97
2023-04-16T05:43:49.033Z,101002.72
2023-04-16T05:46:16.239Z,101004.59
2023-04-16T05:48:43.784Z,101002.78
2023-04-16T05:51:11.234Z,101015.63
2023-04-16T05:53:38.530Z,100992.94
2023-04-16T05:56:06.062Z,100988.16
2023-04-16T05:58:34.085Z,100993.78
2023-04-16T06:01:01.602Z,100983.94
2023-04-16T06:03:28.971Z,100966.19
2023-04-16T06:05:56.130Z,100976.53
2023-04-16T06:08:25.052Z,100967.47
2023-04-16T06:10:52.233Z,100961.53
2023-04-16T06:13:22.161Z,100949.63
2023-04-16T06:15:49.502Z,100967.22
2023-04-16T06:18:16.502Z,100986.38
2023-04-16T06:20:43.762Z,100961.13
2023-04-16T06:23:11.075Z,100978.97
2023-04-16T06:25:38.265Z,100966.16
2023-04-16T06:28:05.791Z,100960.53
2023-04-16T06:30:33.497Z,100969.97
2023-04-16T06:33:01.124Z,100964.94
2023-04-16T06:35:28.429Z,100968.47
2023-04-16T06:37:55.741Z,100952.47
2023-04-16T06:40:23.016Z,100948.44
2023-04-16T06:42:50.591Z,100960.88
2023-04-16T06:45:18.124Z,100968.94
2023-04-16T06:47:45.257Z,100983.28
2023-04-16T06:50:12.439Z,100965.22
2023-04-16T06:52:39.597Z,100981.44
2023-04-16T06:55:09.765Z,100956.50
2023-04-16T06:57:37.754Z,100962.06
2023-04-16T07:00:05.554Z,100943.84
2023-04-16T07:02:32.981Z,100960.06
2023-04-16T07:05:00.712Z,100955.72
2023-04-16T07:07:27.798Z,100949.84
2023-04-16T07:09:54.912Z,100932.28
2023-04-16T07:12:22.952Z,100961.66
2023-04-16T07:14:51.189Z,100936.97
2023-04-16T07:17:18.328Z,100963.56
2023-04-16T07:19:45.670Z,100976.78
2023-04-16T07:22:12.817Z,100965.31
2023-04-16T07:24:39.983Z,100953.81
2023-04-16T07:27:07.123Z,100948.53
2023-04-16T07:29:37.372Z,100935.28
2023-04-16T07:32:05.597Z,100921.97
2023-04-16T07:34:32.712Z,100947.66
2023-04-16T07:36:59.883Z,100948.56
2023-04-16T07:39:27.028Z,100918.47
2023-04-16T07:41:54.118Z,100942.25
2023-04-16T07:44:25.660Z,100933.50
2023-04-16T07:46:55.761Z,100937.06
2023-04-16T07:49:23.998Z,100914.88
2023-04-16T07:51:51.056Z,100928.91
2023-04-16T07:54:21.046Z,100961.66
2023-04-16T07:56:51.037Z,100951.03
2023-04-16T07:59:22.817Z,100939.13
2023-04-16T08:01:52.634Z,100917.94
2023-04-16T08:04:26.581Z,100897.59
2023-04-16T08:06:54.657Z,100918.88
2023-04-16T08:09:24.084Z,100932.25
2023-04-16T08:14:53.537Z,100879.34
2023-04-16T08:17:20.709Z,100953.75
2023-04-16T08:19:48.002Z,100926.41
2023-04-16T08:22:15.186Z,100897.22
2023-04-16T08:24:42.426Z,100912.16
2023-04-16T08:27:18.421Z,100867.75
2023-04-16T08:29:52.593Z,100891.53
2023-04-16T08:32:19.911Z,100910.94
2023-04-16T08:34:47.090Z,100889.88
2023-04-16T08:37:14.302Z,100872.16
2023-04-16T08:39:41.592Z,100906.59
2023-04-16T08:42:18.234Z,100889.66
2023-04-16T08:44:49.475Z,100898.50
2023-04-16T08:47:16.852Z,100885.25
2023-04-16T08:49:46.224Z,100892.41
2023-04-16T08:52:20.469Z,100880.75
2023-04-16T08:55:02.711Z,100884.84
2023-04-16T08:57:41.064Z,100858.81
2023-04-16T09:00:09.759Z,100848.84
2023-04-16T09:02:37.507Z,100852.88
2023-04-16T09:05:07.728Z,100868.38
2023-04-16T09:07:35.645Z,100880.00
2023-04-16T09:10:03.783Z,100878.72
2023-04-16T09:12:33.432Z,100890.47
2023-04-16T09:15:03.549Z,100872.53
2023-04-16T09:17:34.996Z,100878.13
2023-04-16T09:20:04.917Z,100869.03
2023-04-16T09:22:32.835Z,100861.72
2023-04-16T09:24:59.951Z,100869.28
2023-04-16T09:27:42.082Z,100856.88
2023-04-16T09:30:41.274Z,100833.59
2023-04-16T09:33:22.933Z,100869.03
2023-04-16T09:35:52.928Z,100852.06
2023-04-16T09:38:20.774Z,100864.28
2023-04-16T09:40:48.012Z,100865.53
2023-04-16T09:43:17.991Z,100869.50
2023-04-16T09:45:50.272Z,100867.78
2023-04-16T09:48:29.358Z,100864.88
2023-04-16T09:50:57.241Z,100844.19
2023-04-16T09:53:29.215Z,100836.00
2023-04-16T09:56:02.393Z,100813.22
2023-04-16T09:58:29.863Z,100806.00
2023-04-16T10:01:11.505Z,100871.78
2023-04-16T10:03:40.696Z,100861.25
2023-04-16T10:06:15.309Z,100857.06
2023-04-16T10:08:53.498Z,100859.91
2023-04-16T10:11:49.684Z,100763.50
2023-04-16T10:14:23.114Z,100741.06
2023-04-16T10:17:21.566Z,100733.28
2023-04-16T10:20:07.003Z,100784.44
2023-04-16T10:22:49.198Z,100827.16
2023-04-16T10:25:37.810Z,100851.25
2023-04-16T10:28:08.023Z,100688.00
2023-04-16T10:30:55.519Z,100699.38
2023-04-16T10:33:34.440Z,100788.53
2023-04-16T10:36:31.686Z,100827.34
2023-04-16T10:39:17.150Z,100722.69
2023-04-16T10:41:47.947Z,100847.69
2023-04-16T10:44:30.241Z,100786.13
2023-04-16T10:47:01.025Z,100686.47
2023-04-16T10:49:28.368Z,100704.78
2023-04-16T10:52:17.559Z,100676.00
2023-04-16T10:54:52.690Z,100708.69
2023-04-16T10:57:25.395Z,100687.66
2023-04-16T10:59:53.477Z,100828.50
2023-04-16T11:02:29.297Z,100776.56
2023-04-16T11:04:58.153Z,100824.00
2023-04-16T11:07:35.362Z,100818.88
2023-04-16T11:10:13.492Z,100817.63
2023-04-16T11:12:46.050Z,100806.06
2023-04-16T11:15:20.073Z,100802.09
2023-04-16T11:17:52.290Z,100798.13
2023-04-16T11:20:21.038Z,100802.69
2023-04-16T11:22:50.827Z,100799.75
2023-04-16T11:25:26.523Z,100787.75
2023-04-16T11:27:54.995Z,100781.84
2023-04-16T11:30:49.031Z,100810.13
2023-04-16T11:33:16.714Z,100786.31
2023-04-16T11:35:46.050Z,100774.72
2023-04-16T11:38:13.293Z,100770.28
2023-04-16T11:40:43.085Z,100730.53
2023-04-16T11:43:14.301Z,100765.38
2023-04-16T11:45:56.623Z,100779.81
2023-04-16T11:48:23.829Z,100764.72
2023-04-16T11:50:58.152Z,100766.63
2023-04-16T11:53:25.382Z,100761.47
2023-04-16T11:55:52.478Z,100756.81
2023-04-16T11:58:20.397Z,100732.81
2023-04-16T12:00:53.484Z,100727.06
2023-04-16T12:03:38.442Z,100743.19
2023-04-16T12:06:09.926Z,100722.47
2023-04-16T12:08:37.324Z,100750.59
2023-04-16T12:11:04.818Z,100724.94
2023-04-16T12:13:39.882Z,100724.53
2023-04-16T12:16:18.607Z,100719.47
2023-04-16T12:19:04.142Z,100685.88
2023-04-16T12:21:43.066Z,100717.97
2023-04-16T12:24:13.712Z,100721.75
2023-04-16T12:26:46.656Z,100693.56
2023-04-16T12:29:22.391Z,100696.16
2023-04-16T12:31:50.977Z,100707.03
2023-04-16T12:34:20.054Z,100694.28
2023-04-16T12:36:48.705Z,100713.81
2023-04-16T12:39:16.349Z,100683.94
2023-04-16T12:41:44.679Z,100691.59
2023-04-16T12:44:16.708Z,100709.19
2023-04-16T12:46:45.207Z,100698.97
2023-04-16T12:49:12.751Z,100669.81
2023-04-16T12:51:40.190Z,100677.75
2023-04-16T12:54:07.716Z,100694.38
2023-04-16T12:59:47.212Z,100644.88
2023-04-16T13:02:14.367Z,100622.19
2023-04-16T13:04:41.599Z,100699.13
2023-04-16T13:07:08.818Z,100672.19
2023-04-16T13:09:37.760Z,100684.28
2023-04-16T13:12:06.780Z,100661.03
2023-04-16T13:14:33.909Z,100677.03
2023-04-16T13:17:01.465Z,100662.88
2023-04-16T13:19:28.782Z,100653.09
2023-04-16T13:21:56.048Z,100642.72
2023-04-16T13:24:23.848Z,100664.84
2023-04-16T13:26:53.865Z,100646.69
2023-04-16T13:29:20.971Z,100648.13
2023-04-16T13:31:48.533Z,100649.13
2023-04-16T13:34:20.445Z,100652.97
2023-04-16T13:36:47.927Z,100636.25
2023-04-16T13:39:15.814Z,100622.22
2023-04-16T13:41:43.468Z,100633.22
2023-04-16T13:44:10.675Z,100659.06
2023-04-16T13:46:37.721Z,100635.59
2023-04-16T13:49:04.948Z,100658.72
2023-04-16T13:51:32.227Z,100652.78
2023-04-16T13:53:59.509Z,100633.50
2023-04-16T13:56:26.860Z,100653.69
2023-04-16T13:58:54.290Z,100627.78
2023-04-16T14:01:21.909Z,100625.78
2023-04-16T14:03:49.771Z,100628.56
2023-04-16T14:06:18.238Z,100619.53
2023-04-16T14:08:46.017Z,100654.09
2023-04-16T14:11:13.164Z,100643.22
2023-04-16T14:13:40.621Z,100630.81
2023-04-16T14:16:07.894Z,100650.44
2023-04-16T14:18:35.911Z,100624.16
2023-04-16T14:21:03.136Z,100610.88
2023-04-16T14:23:30.350Z,100611.44
2023-04-16T14:25:57.627Z,100629.69
2023-04-16T14:28:25.122Z,100603.03
2023-04-16T14:30:52.524Z,100621.13
2023-04-16T14:33:19.874Z,100615.59
2023-04-16T14:35:47.048Z,100626.25
2023-04-16T14:38:14.339Z,100639.06
2023-04-16T14:40:41.664Z,100628.69
2023-04-16T14:43:08.845Z,100628.69
2023-04-16T14:45:39.235Z,100626.00
2023-04-16T14:48:06.932Z,100626.09
2023-04-16T14:50:38.233Z,100611.38
2023-04-16T14:53:06.059Z,100597.13
2023-04-16T14:55:33.283Z,100592.81
2023-04-16T14:58:00.672Z,100632.16
2023-04-16T15:00:28.238Z,100627.16
2023-04-16T15:02:55.846Z,100606.13
2023-04-16T15:05:29.272Z,100564.81
2023-04-16T15:08:00.694Z,100614.34
2023-04-16T15:10:28.660Z,100635.59
2023-04-16T15:12:55.894Z,100610.00
2023-04-16T15:15:22.934Z,100632.06
2023-04-16T15:17:51.223Z,100630.28
2023-04-16T15:20:18.775Z,100577.28
2023-04-16T15:22:46.373Z,100623.19
2023-04-16T15:25:14.615Z,100618.78
2023-04-16T15:27:41.795Z,100603.75
2023-04-16T15:30:09.456Z,100627.63
2023-04-16T15:32:36.888Z,100604.66
2023-04-16T15:35:05.092Z,100629.38
2023-04-16T15:37:32.248Z,100611.72
2023-04-16T15:39:59.482Z,100626.69
2023-04-16T15:42:26.735Z,100626.72
2023-04-16T15:44:53.905Z,100631.13
2023-04-16T15:47:21.080Z,100581.63
2023-04-16T15:49:48.255Z,100630.22
2023-04-16T15:52:18.670Z,100603.72
2023-04-16T15:54:45.967Z,100626.66
2023-04-16T15:57:12.949Z,100617.78
2023-04-16T15:59:40.066Z,100630.16
2023-04-16T16:02:09.490Z,100638.03
2023-04-16T16:04:36.753Z,100620.38
2023-04-16T16:07:04.721Z,100629.22
2023-04-16T16:09:31.951Z,100607.94
2023-04-16T16:11:59.914Z,100621.19
2023-04-16T16:14:27.092Z,100633.50
2023-04-16T16:16:54.745Z,100627.28
2023-04-16T16:19:24.309Z,100636.13
2023-04-16T16:21:51.522Z,100588.34
2023-04-16T16:24:18.685Z,100605.06
2023-04-16T16:26:45.806Z,100615.66
2023-04-16T16:29:13.304Z,100586.47
2023-04-16T16:31:40.553Z,100589.06
2023-04-16T16:34:07.901Z,100600.56
2023-04-16T16:36:37.873Z,100635.88
2023-04-16T16:39:05.112Z,100619.94
2023-04-16T16:41:32.557Z,100634.06
2023-04-16T16:43:59.932Z,100633.16
2023-04-16T16:46:27.170Z,100622.50
2023-04-16T16:48:54.600Z,100611.06
2023-04-16T16:51:21.726Z,100621.59
2023-04-16T16:53:48.923Z,100633.13
2023-04-16T16:56:16.220Z,100637.50
2023-04-16T16:58:43.601Z,100630.41
2023-04-16T17:01:10.730Z,100633.91
2023-04-16T17:03:37.815Z,100597.56
2023-04-16T17:06:11.174Z,100627.63
2023-04-16T17:08:38.531Z,100616.00
2023-04-16T17:11:05.738Z,100614.16
2023-04-16T17:13:32.920Z,100629.19
2023-04-16T17:16:00.174Z,100612.31
2023-04-16T17:18:28.137Z,100642.38
2023-04-16T17:20:55.203Z,100635.28
2023-04-16T17:23:25.153Z,100596.38
2023-04-16T17:25:52.612Z,100613.03
2023-04-16T17:28:21.013Z,100643.94
2023-04-16T17:30:56.769Z,100637.69
2023-04-16T17:33:50.878Z,100564.09
2023-04-16T17:36:19.896Z,100635.78
2023-04-16T17:38:46.924Z,100631.22
2023-04-16T17:41:14.122Z,100640.84
2023-04-16T17:43:41.311Z,100638.13
2023-04-16T17:46:11.878Z,100633.56
2023-04-16T17:48:38.972Z,100630.88
2023-04-16T17:51:11.940Z,100606.94
2023-04-16T17:53:39.336Z,100631.72
2023-04-16T17:56:06.915Z,100619.28
2023-04-16T17:58:35.403Z,100640.47
2023-04-16T18:01:03.577Z,100633.41
2023-04-16T18:03:32.156Z,100634.34
2023-04-16T18:05:59.788Z,100626.38
2023-04-16T18:08:27.786Z,100610.53
2023-04-16T18:10:55.710Z,100606.94
2023-04-16T18:13:24.313Z,100629.03
2023-04-16T18:15:51.985Z,100633.38
2023-04-16T18:18:20.732Z,100593.47
2023-04-16T18:20:48.273Z,100609.47
2023-04-16T18:23:15.364Z,100599.69
2023-04-16T18:25:42.517Z,100574.91
2023-04-16T18:28:09.631Z,100581.00
2023-04-16T18:30:40.466Z,100599.56
2023-04-16T18:35:57.505Z,100465.81
2023-04-16T18:39:02.758Z,100458.78
2023-04-16T18:41:27.462Z,100547.25
2023-04-16T18:43:54.695Z,100618.03
2023-04-16T18:46:22.107Z,100622.41
2023-04-16T18:48:49.566Z,100602.91
2023-04-16T18:51:16.973Z,100616.16
2023-04-16T18:53:45.929Z,100615.19
2023-04-16T18:56:13.168Z,100614.22
2023-04-16T18:58:40.551Z,100610.59
2023-04-16T19:01:11.449Z,100615.84
2023-04-16T19:03:39.453Z,100583.84
2023-04-16T19:06:07.154Z,100617.53
2023-04-16T19:08:37.597Z,100581.19
2023-04-16T19:11:04.552Z,100610.44
2023-04-16T19:13:32.543Z,100587.34
2023-04-16T19:16:01.207Z,100590.94
2023-04-16T19:18:28.473Z,100577.56
2023-04-16T19:21:00.680Z,100609.47
2023-04-16T19:23:29.242Z,100540.31
2023-04-16T19:25:57.079Z,100608.38
2023-04-16T19:28:25.939Z,100594.16
2023-04-16T19:30:54.045Z,100609.22
2023-04-16T19:33:21.540Z,100593.25
2023-04-16T19:35:49.089Z,100606.44
2023-04-16T19:38:18.150Z,100613.41
2023-04-16T19:41:12.267Z,100615.06
2023-04-16T19:43:39.307Z,100588.56
2023-04-16T19:46:06.697Z,100596.50
2023-04-16T19:48:34.079Z,100609.72
2023-04-16T19:51:03.707Z,100555.69
2023-04-16T19:53:30.722Z,100577.69
2023-04-16T19:55:57.901Z,100611.31
2023-04-16T19:58:25.494Z,100604.97
2023-04-16T20:00:56.599Z,100596.00
2023-04-16T20:03:23.910Z,100575.53
2023-04-16T20:05:51.216Z,100602.13
2023-04-16T20:08:18.315Z,100599.47
2023-04-16T20:10:45.605Z,100611.66
2023-04-16T20:13:13.857Z,100594.69
2023-04-16T20:15:41.213Z,100608.91
2023-04-16T20:18:09.059Z,100615.91
2023-04-16T20:20:37.964Z,100607.84
2023-04-16T20:23:14.772Z,100597.25
2023-04-16T20:25:49.140Z,100611.25
2023-04-16T20:28:18.276Z,100498.63
2023-04-16T20:30:45.395Z,100595.00
2023-04-16T20:33:12.813Z,100612.63
2023-04-16T20:35:40.123Z,100617.00
2023-04-16T20:38:07.191Z,100590.34
2023-04-16T20:40:38.841Z,100581.34
2023-04-16T20:43:10.332Z,100607.97
2023-04-16T20:45:41.199Z,100576.84
2023-04-16T20:48:10.250Z,100588.28
2023-04-16T20:50:38.019Z,100612.94
2023-04-16T20:53:05.123Z,100618.13
2023-04-16T20:55:32.284Z,100615.41
2023-04-16T20:57:59.467Z,100591.59
2023-04-16T21:00:27.257Z,100598.59
2023-04-16T21:02:54.978Z,100608.31
2023-04-16T21:05:24.041Z,100600.28
2023-04-16T21:07:52.365Z,100599.38
2023-04-16T21:10:20.887Z,100599.38
2023-04-16T21:12:49.632Z,100598.28
2023-04-16T21:15:16.872Z,100582.22
2023-04-16T21:17:43.952Z,100537.03
2023-04-16T21:20:13.654Z,100589.25
2023-04-16T21:22:41.215Z,100591.88
2023-04-16T21:25:08.953Z,100555.41
2023-04-16T21:27:38.340Z,100605.19
2023-04-16T21:30:05.990Z,100608.56
2023-04-16T21:32:33.448Z,100595.44
2023-04-16T21:35:01.070Z,100597.06
2023-04-16T21:37:28.408Z,100602.31
2023-04-16T21:39:55.740Z,100597.97
2023-04-16T21:42:22.914Z,100596.13
2023-04-16T21:44:50.310Z,100585.56
2023-04-16T21:47:19.473Z,100553.50
2023-04-16T21:49:46.701Z,100595.19
2023-04-16T21:52:18.514Z,100613.72
2023-04-16T21:54:46.185Z,100610.97
2023-04-16T21:57:13.845Z,100614.53
2023-04-16T21:59:41.246Z,100610.13
2023-04-16T22:02:08.546Z,100587.91
2023-04-16T22:04:39.528Z,100611.88
2023-04-16T22:07:11.925Z,100581.72
2023-04-16T22:09:40.556Z,100617.94
2023-04-16T22:12:10.633Z,100584.16
2023-04-16T22:14:44.047Z,100585.19
2023-04-16T22:17:17.359Z,100615.16
2023-04-16T22:19:44.851Z,100622.03
2023-04-16T22:22:12.208Z,100616.56
2023-04-16T22:24:39.403Z,100621.06
2023-04-16T22:27:06.909Z,100622.75
2023-04-16T22:29:34.223Z,100621.81
2023-04-16T22:32:02.104Z,100602.25
2023-04-16T22:34:29.402Z,100600.31
2023-04-16T22:36:56.535Z,100618.81
2023-04-16T22:39:23.677Z,100615.09
2023-04-16T22:41:50.769Z,100609.91
2023-04-16T22:44:17.892Z,100621.41
2023-04-16T22:46:45.114Z,100622.22
2023-04-16T22:49:12.374Z,100622.28
2023-04-16T22:51:40.448Z,100620.44
2023-04-16T22:54:08.081Z,100616.81
2023-04-16T22:56:35.346Z,100609.53
2023-04-16T22:59:02.450Z,100624.63
2023-04-16T23:01:29.618Z,100619.31
2023-04-16T23:03:56.904Z,100613.81
2023-04-16T23:06:24.232Z,100615.69
2023-04-16T23:08:51.440Z,100606.88
2023-04-16T23:11:18.475Z,100611.34
2023-04-16T23:13:45.849Z,100603.34
2023-04-16T23:16:16.234Z,100585.66
2023-04-16T23:18:43.442Z,100628.03
2023-04-16T23:21:10.708Z,100598.72
2023-04-16T23:23:37.749Z,100622.69
2023-04-16T23:26:05.213Z,100595.28
2023-04-16T23:28:32.400Z,100603.16
2023-04-16T23:30:59.638Z,100620.84
2023-04-16T23:33:27.382Z,100590.75
2023-04-16T23:35:54.593Z,100608.56
2023-04-16T23:38:22.029Z,100601.31
2023-04-16T23:40:49.236Z,100607.44
2023-04-16T23:43:16.992Z,100611.06
2023-04-16T23:45:44.314Z,100605.78
2023-04-16T23:48:11.781Z,100610.00
2023-04-16T23:50:38.950Z,100596.63
2023-04-16T23:53:06.525Z,100596.63
2023-04-16T23:55:33.607Z,100615.09
2023-04-16T23:58:00.732Z,100606.28
